Yellowfin — WCW2778 — position and weather

sailwx.info

Track history (hours):
 
Tides and Currents Weather Stations Pressure Air Temp Water Temp Dewpoint Dewpoint Depression Visibility Wind Speed Wind Dir Waves Ship Positions

Oceanographic research ship Yellowfin (USA)

Detailed information on ship capabilities available from University of Delaware's Ocean Information Center.

Owner: CALIFORNIA STATE UNIVERSITY, TERMINAL ISLAND, CA. More information available from US FCC via Universal Licensing System and Coast Guard Vessel Documentation Center.

Last reported at 2020-Mar-10 04:31 UTC. Time now 2020-Mar-31 12:45 UTC.
Position N 33°44' W 118°16'.
Warning: this ship's position is 21 days out of date.

Length 25 m; draft 2.5 m.

Type: Other ship. MMSI: 367000160.

Date/timePositionNaut miles runAvg speedWind from/ knotsBaromVisibWave heightAir tempDewpointWater temp
2020-Mar-10 04:31N 33°44' W 118°16'0 5.1
2020-Mar-10 04:30N 33°44' W 118°16'4 7.3
2020-Mar-10 04:00N 33°40' W 118°17'10 6.4
2020-Mar-10 02:30N 33°34' W 118°25'2 1.4
2020-Mar-10 01:00N 33°32' W 118°23'2 1.9
2020-Mar-09 23:57N 33°33' W 118°25'1 1.8
2020-Mar-09 23:30N 33°34' W 118°26'11 3.7
2020-Mar-09 20:31N 33°41' W 118°17'3 1.4
2020-Mar-09 18:31N 33°44' W 118°16'0 0.0
2020-Mar-07 19:59N 33°44' W 118°16'4 4.3
2020-Mar-07 19:01N 33°41' W 118°20'6 5.6
2020-Mar-07 18:00N 33°41' W 118°13'3 5.1
2020-Mar-07 17:30N 33°43' W 118°15'1 0.0
2020-Mar-06 00:00N 33°44' W 118°14'2 1.7
2020-Mar-05 23:00N 33°44' W 118°12'1 1.1
2020-Mar-05 22:00N 33°44' W 118°10'6 2.2
2020-Mar-05 19:00N 33°42' W 118°18'3 1.4
2020-Mar-05 16:30N 33°43' W 118°14'5 0.1
2020-Mar-03 18:30N 33°42' W 118°20'3 6.5
2020-Mar-03 18:00N 33°40' W 118°17'4 2.7
2020-Mar-03 16:31N 33°43' W 118°14'  
Track history (hours):
 
Tides and Currents Weather Stations Pressure Air Temp Water Temp Dewpoint Dewpoint Depression Visibility Wind Speed Wind Dir Waves Ship Positions

Oceanographic research ship Yellowfin (USA)

Detailed information on ship capabilities available from University of Delaware's Ocean Information Center.

Owner: CALIFORNIA STATE UNIVERSITY, TERMINAL ISLAND, CA. More information available from US FCC via Universal Licensing System and Coast Guard Vessel Documentation Center.

Last reported at 2020-Mar-10 04:31 UTC. Time now 2020-Mar-31 12:45 UTC.
Position N 33°44' W 118°16'.
Warning: this ship's position is 21 days out of date.

Length 25 m; draft 2.5 m.

Type: Other ship. MMSI: 367000160.

Date/timePositionNaut miles runAvg speedWind from/ knotsBaromVisibWave heightAir tempDewpointWater temp
2020-Mar-10 04:31N 33°44' W 118°16'0 5.1
2020-Mar-10 04:30N 33°44' W 118°16'4 7.3
2020-Mar-10 04:00N 33°40' W 118°17'10 6.4
2020-Mar-10 02:30N 33°34' W 118°25'2 1.4
2020-Mar-10 01:00N 33°32' W 118°23'2 1.9
2020-Mar-09 23:57N 33°33' W 118°25'1 1.8
2020-Mar-09 23:30N 33°34' W 118°26'11 3.7
2020-Mar-09 20:31N 33°41' W 118°17'3 1.4
2020-Mar-09 18:31N 33°44' W 118°16'0 0.0
2020-Mar-07 19:59N 33°44' W 118°16'4 4.3
2020-Mar-07 19:01N 33°41' W 118°20'6 5.6
2020-Mar-07 18:00N 33°41' W 118°13'3 5.1
2020-Mar-07 17:30N 33°43' W 118°15'1 0.0
2020-Mar-06 00:00N 33°44' W 118°14'2 1.7
2020-Mar-05 23:00N 33°44' W 118°12'1 1.1
2020-Mar-05 22:00N 33°44' W 118°10'6 2.2
2020-Mar-05 19:00N 33°42' W 118°18'3 1.4
2020-Mar-05 16:30N 33°43' W 118°14'5 0.1
2020-Mar-03 18:30N 33°42' W 118°20'3 6.5
2020-Mar-03 18:00N 33°40' W 118°17'4 2.7
2020-Mar-03 16:31N 33°43' W 118°14'  

Dump ship's entire track history